createdAt,value
2017-12-22T00:00:46.270Z,8.13
2017-12-22T00:03:13.746Z,8.83
2017-12-22T00:05:41.252Z,9.37
2017-12-22T00:08:08.730Z,7.40
2017-12-22T00:10:36.208Z,8.83
2017-12-22T00:13:03.728Z,8.53
2017-12-22T00:15:31.220Z,8.37
2017-12-22T00:17:58.948Z,7.80
2017-12-22T00:20:26.446Z,8.43
2017-12-22T00:22:53.998Z,8.40
2017-12-22T00:25:21.479Z,8.83
2017-12-22T00:27:48.974Z,8.40
2017-12-22T00:30:16.479Z,8.23
2017-12-22T00:32:43.947Z,8.00
2017-12-22T00:35:11.483Z,9.10
2017-12-22T00:37:38.953Z,7.30
2017-12-22T00:40:06.441Z,7.87
2017-12-22T00:42:34.686Z,8.50
2017-12-22T00:45:02.157Z,8.40
2017-12-22T00:47:29.755Z,7.30
2017-12-22T00:49:57.238Z,7.50
2017-12-22T00:52:24.721Z,8.80
2017-12-22T00:54:52.211Z,8.23
2017-12-22T00:57:20.486Z,8.10
2017-12-22T00:59:48.756Z,8.30
2017-12-22T01:02:16.226Z,7.83
2017-12-22T01:04:44.492Z,8.83
2017-12-22T01:07:11.976Z,8.50
2017-12-22T01:09:39.456Z,8.87
2017-12-22T01:12:06.962Z,10.50
2017-12-22T01:14:34.442Z,8.57
2017-12-22T01:17:08.292Z,9.27
2017-12-22T01:19:35.769Z,12.37
2017-12-22T01:22:03.259Z,11.10
2017-12-22T01:24:31.513Z,11.53
2017-12-22T01:26:58.991Z,10.40
2017-12-22T01:29:27.261Z,10.73
2017-12-22T01:31:55.523Z,10.17
2017-12-22T01:34:22.999Z,11.13
2017-12-22T01:36:51.239Z,10.73
2017-12-22T01:39:18.731Z,10.13
2017-12-22T01:41:46.975Z,10.07
2017-12-22T01:44:15.283Z,10.27
2017-12-22T01:46:43.534Z,10.03
2017-12-22T01:49:12.054Z,10.30
2017-12-22T01:51:40.293Z,10.67
2017-12-22T01:54:07.777Z,9.93
2017-12-22T01:56:36.026Z,11.27
2017-12-22T01:59:03.506Z,11.57
2017-12-22T02:01:31.384Z,8.70
2017-12-22T02:03:59.914Z,10.87
2017-12-22T02:06:27.386Z,10.60
2017-12-22T02:08:54.873Z,10.37
2017-12-22T02:11:23.136Z,9.60
2017-12-22T02:13:50.622Z,10.90
2017-12-22T02:16:18.880Z,10.80
2017-12-22T02:18:46.445Z,10.73
2017-12-22T02:21:14.724Z,10.60
2017-12-22T02:23:42.981Z,10.13
2017-12-22T02:26:10.449Z,10.63
2017-12-22T02:28:37.963Z,10.07
2017-12-22T02:31:05.461Z,11.77
2017-12-22T02:33:32.939Z,10.60
2017-12-22T02:36:01.215Z,11.37
2017-12-22T02:38:29.463Z,10.13
2017-12-22T02:40:56.935Z,11.03
2017-12-22T02:43:25.222Z,12.20
2017-12-22T02:45:53.470Z,12.43
2017-12-22T02:48:20.952Z,11.53
2017-12-22T02:50:49.198Z,11.80
2017-12-22T02:53:16.688Z,13.87
2017-12-22T02:55:44.927Z,12.80
2017-12-22T02:58:12.426Z,14.13
2017-12-22T03:00:40.704Z,14.17
2017-12-22T03:03:08.945Z,14.13
2017-12-22T03:05:36.423Z,13.80
2017-12-22T03:08:03.913Z,14.57
2017-12-22T03:10:31.392Z,13.47
2017-12-22T03:12:58.872Z,13.40
2017-12-22T03:15:26.362Z,14.00
2017-12-22T03:17:53.838Z,14.57
2017-12-22T03:20:22.079Z,13.37
2017-12-22T03:22:49.617Z,13.70
2017-12-22T03:25:17.095Z,14.70
2017-12-22T03:27:44.681Z,14.70
2017-12-22T03:30:12.933Z,15.97
2017-12-22T03:32:41.919Z,17.00
2017-12-22T03:35:09.402Z,16.50
2017-12-22T03:37:37.655Z,15.40
2017-12-22T03:40:05.235Z,16.37
2017-12-22T03:42:32.823Z,15.43
2017-12-22T03:45:00.359Z,14.43
2017-12-22T03:47:28.602Z,13.03
2017-12-22T03:49:56.079Z,16.13
2017-12-22T03:52:23.566Z,15.40
2017-12-22T03:54:51.819Z,14.17
2017-12-22T03:57:19.294Z,14.63
2017-12-22T03:59:47.550Z,16.67
2017-12-22T04:02:15.024Z,15.17
2017-12-22T04:04:43.266Z,15.33
2017-12-22T04:07:10.818Z,15.13
2017-12-22T04:09:38.296Z,14.80
2017-12-22T04:12:05.773Z,15.43
2017-12-22T04:14:34.032Z,15.93
2017-12-22T04:17:02.343Z,16.30
2017-12-22T04:19:30.587Z,16.50
2017-12-22T04:21:58.835Z,16.83
2017-12-22T04:24:26.317Z,15.70
2017-12-22T04:26:53.793Z,17.63
2017-12-22T04:29:22.041Z,19.90
2017-12-22T04:31:49.523Z,17.60
2017-12-22T04:34:16.999Z,18.77
2017-12-22T04:36:45.287Z,20.10
2017-12-22T04:39:13.896Z,18.13
2017-12-22T04:41:41.371Z,18.07
2017-12-22T04:44:08.851Z,19.00
2017-12-22T04:46:37.847Z,18.93
2017-12-22T04:49:05.319Z,17.97
2017-12-22T04:51:33.580Z,20.30
2017-12-22T04:54:01.057Z,19.20
2017-12-22T04:56:29.305Z,20.00
2017-12-22T04:58:57.026Z,21.07
2017-12-22T05:01:24.498Z,18.80
2017-12-22T05:03:51.988Z,21.47
2017-12-22T05:06:19.470Z,19.50
2017-12-22T05:08:47.988Z,19.43
2017-12-22T05:11:15.508Z,21.37
2017-12-22T05:13:43.765Z,19.97
2017-12-22T05:16:11.340Z,18.40
2017-12-22T05:18:39.584Z,19.47
2017-12-22T05:21:07.080Z,18.83
2017-12-22T05:23:35.318Z,19.00
2017-12-22T05:26:02.803Z,19.57
2017-12-22T05:28:30.410Z,19.13
2017-12-22T05:30:58.995Z,18.50
2017-12-22T05:33:26.476Z,21.43
2017-12-22T05:35:53.963Z,21.27
2017-12-22T05:38:21.438Z,21.03
2017-12-22T05:40:49.688Z,22.50
2017-12-22T05:43:18.691Z,22.23
2017-12-22T05:45:46.167Z,23.03
2017-12-22T05:48:14.405Z,24.23
2017-12-22T05:50:41.891Z,24.07
2017-12-22T05:53:10.134Z,27.90
2017-12-22T05:55:37.617Z,24.23
2017-12-22T05:58:05.098Z,26.80
2017-12-22T06:00:33.360Z,27.03
2017-12-22T06:03:01.610Z,25.57
2017-12-22T06:05:29.102Z,25.90
2017-12-22T06:07:57.348Z,26.63
2017-12-22T06:10:24.884Z,25.37
2017-12-22T06:12:52.394Z,26.33
2017-12-22T06:15:20.666Z,26.70
2017-12-22T06:17:48.906Z,25.60
2017-12-22T06:20:16.455Z,23.30
2017-12-22T06:22:43.942Z,24.00
2017-12-22T06:25:11.420Z,24.80
2017-12-22T06:27:39.684Z,25.63
2017-12-22T06:30:07.274Z,24.50
2017-12-22T06:32:34.756Z,25.30
2017-12-22T06:35:02.331Z,23.70
2017-12-22T06:37:29.811Z,24.60
2017-12-22T06:39:57.441Z,23.60
2017-12-22T06:42:24.949Z,21.70
2017-12-22T06:44:53.193Z,22.10
2017-12-22T06:47:20.686Z,21.50
2017-12-22T06:49:48.943Z,19.97
2017-12-22T06:52:16.420Z,19.77
2017-12-22T06:54:44.667Z,22.53
2017-12-22T06:57:12.155Z,23.20
2017-12-22T06:59:40.398Z,19.77
2017-12-22T07:02:07.874Z,18.00
2017-12-22T07:04:35.452Z,20.13
2017-12-22T07:07:03.710Z,20.20
2017-12-22T07:09:31.194Z,20.97
2017-12-22T07:11:59.516Z,21.83
2017-12-22T07:14:27.058Z,19.57
2017-12-22T07:16:54.534Z,20.20
2017-12-22T07:19:22.024Z,19.63
2017-12-22T07:21:49.500Z,19.40
2017-12-22T07:24:17.808Z,18.37
2017-12-22T07:26:45.310Z,19.17
2017-12-22T07:29:12.789Z,19.70
2017-12-22T07:31:41.118Z,20.27
2017-12-22T07:34:08.603Z,19.53
2017-12-22T07:36:36.846Z,19.30
2017-12-22T07:39:04.331Z,20.73
2017-12-22T07:41:31.820Z,20.53
2017-12-22T07:44:00.063Z,20.63
2017-12-22T07:46:27.548Z,18.80
2017-12-22T07:48:55.883Z,18.60
2017-12-22T07:51:23.366Z,19.93
2017-12-22T07:53:50.847Z,21.20
2017-12-22T07:56:19.091Z,19.27
2017-12-22T07:58:46.570Z,21.50
2017-12-22T08:01:14.811Z,20.50
2017-12-22T08:03:42.302Z,19.93
2017-12-22T08:06:09.778Z,18.60
2017-12-22T08:08:38.014Z,17.20
2017-12-22T08:11:05.504Z,18.07
2017-12-22T08:13:33.774Z,17.90
2017-12-22T08:16:02.018Z,19.47
2017-12-22T08:18:29.508Z,20.33
2017-12-22T08:20:56.986Z,20.50
2017-12-22T08:23:25.236Z,19.50
2017-12-22T08:25:52.718Z,19.13
2017-12-22T08:28:20.957Z,20.97
2017-12-22T08:30:48.436Z,18.40
2017-12-22T08:33:15.924Z,17.70
2017-12-22T08:35:43.415Z,19.93
2017-12-22T08:38:10.896Z,18.80
2017-12-22T08:40:38.392Z,18.13
2017-12-22T08:43:05.869Z,19.30
2017-12-22T08:45:33.347Z,19.40
2017-12-22T08:48:00.882Z,19.27
2017-12-22T08:50:28.359Z,20.63
2017-12-22T08:52:55.831Z,18.80
2017-12-22T08:55:23.335Z,18.80
2017-12-22T08:57:51.587Z,18.43
2017-12-22T09:00:19.058Z,17.40
2017-12-22T09:02:47.311Z,18.10
2017-12-22T09:05:14.802Z,16.67
2017-12-22T09:07:43.434Z,17.07
2017-12-22T09:10:10.927Z,18.30
2017-12-22T09:12:39.163Z,17.30
2017-12-22T09:15:06.766Z,17.80
2017-12-22T09:17:35.102Z,15.10
2017-12-22T09:20:02.659Z,16.50
2017-12-22T09:22:30.167Z,16.90
2017-12-22T09:24:58.426Z,18.10
2017-12-22T09:27:25.904Z,18.00
2017-12-22T09:29:54.174Z,17.93
2017-12-22T09:32:22.430Z,17.10
2017-12-22T09:34:49.909Z,17.70
2017-12-22T09:37:18.158Z,17.70
2017-12-22T09:39:45.891Z,17.90
2017-12-22T09:42:13.361Z,18.57
2017-12-22T09:44:40.847Z,15.80
2017-12-22T09:47:09.121Z,14.43
2017-12-22T09:49:36.594Z,15.33
2017-12-22T09:52:04.065Z,15.37
2017-12-22T09:54:32.323Z,15.97
2017-12-22T09:57:02.042Z,16.90
2017-12-22T09:59:29.519Z,16.87
2017-12-22T10:01:58.717Z,17.20
2017-12-22T10:04:26.955Z,17.20
2017-12-22T10:06:54.539Z,16.73
2017-12-22T10:09:22.814Z,17.63
2017-12-22T10:11:51.114Z,18.03
2017-12-22T10:14:18.650Z,14.73
2017-12-22T10:16:46.904Z,15.67
2017-12-22T10:19:15.148Z,18.60
2017-12-22T10:21:42.626Z,16.90
2017-12-22T10:24:10.240Z,16.87
2017-12-22T10:26:38.482Z,16.00
2017-12-22T10:29:05.963Z,16.23
2017-12-22T10:31:34.281Z,14.93
2017-12-22T10:34:02.497Z,15.87
2017-12-22T10:36:29.998Z,15.80
2017-12-22T10:38:57.532Z,15.50
2017-12-22T10:41:25.776Z,14.60
2017-12-22T10:43:53.260Z,15.17
2017-12-22T10:46:21.618Z,14.60
2017-12-22T10:48:49.263Z,14.67
2017-12-22T10:51:16.808Z,13.80
2017-12-22T10:53:44.289Z,13.87
2017-12-22T10:56:11.765Z,15.23
2017-12-22T10:58:39.241Z,15.90
2017-12-22T11:01:07.499Z,14.00
2017-12-22T11:03:34.971Z,14.90
2017-12-22T11:06:03.215Z,13.83
2017-12-22T11:08:30.695Z,15.00
2017-12-22T11:10:58.167Z,15.40
2017-12-22T11:13:26.434Z,15.10
2017-12-22T11:15:53.918Z,14.87
2017-12-22T11:18:21.398Z,16.10
2017-12-22T11:20:48.874Z,14.80
2017-12-22T11:23:16.470Z,15.03
2017-12-22T11:25:44.714Z,14.13
2017-12-22T11:28:12.198Z,14.17
2017-12-22T11:30:39.686Z,15.27
2017-12-22T11:33:07.162Z,15.10
2017-12-22T11:35:34.680Z,16.20
2017-12-22T11:38:02.944Z,15.43
2017-12-22T11:40:31.186Z,15.20
2017-12-22T11:42:58.657Z,15.80
2017-12-22T11:45:26.149Z,15.70
2017-12-22T11:47:54.399Z,15.60
2017-12-22T11:50:21.874Z,14.93
2017-12-22T11:52:49.357Z,14.93
2017-12-22T11:55:16.841Z,14.80
2017-12-22T11:57:44.923Z,17.17
2017-12-22T12:00:12.435Z,16.10
2017-12-22T12:02:41.529Z,15.97
2017-12-22T12:05:09.803Z,16.70
2017-12-22T12:07:38.767Z,14.80
2017-12-22T12:10:06.243Z,15.93
2017-12-22T12:12:34.443Z,15.13
2017-12-22T12:15:02.692Z,16.30
2017-12-22T12:17:30.171Z,16.33
2017-12-22T12:19:58.413Z,15.20
2017-12-22T12:22:25.906Z,17.93
2017-12-22T12:24:54.146Z,18.20
2017-12-22T12:27:22.782Z,15.97
2017-12-22T12:29:50.324Z,14.97
2017-12-22T12:32:18.570Z,17.77
2017-12-22T12:34:46.160Z,16.60
2017-12-22T12:37:14.418Z,17.17
2017-12-22T12:39:41.904Z,19.07
2017-12-22T12:42:10.151Z,19.33
2017-12-22T12:44:37.642Z,16.63
2017-12-22T12:47:05.231Z,17.17
2017-12-22T12:49:32.711Z,17.67
2017-12-22T12:52:00.196Z,16.43
2017-12-22T12:54:27.679Z,17.17
2017-12-22T12:56:55.151Z,18.33
2017-12-22T12:59:22.647Z,16.57
2017-12-22T13:01:50.125Z,14.90
2017-12-22T13:04:18.371Z,16.57
2017-12-22T13:06:45.873Z,15.20
2017-12-22T13:09:14.171Z,15.30
2017-12-22T13:11:41.653Z,15.10
2017-12-22T13:14:09.155Z,14.87
2017-12-22T13:16:37.402Z,14.30
2017-12-22T13:19:04.979Z,14.50
2017-12-22T13:21:32.501Z,12.90
2017-12-22T13:24:00.058Z,14.37
2017-12-22T13:26:27.543Z,14.53
2017-12-22T13:28:55.135Z,14.20
2017-12-22T13:31:23.378Z,14.50
2017-12-22T13:33:50.860Z,14.40
2017-12-22T13:36:18.350Z,15.03
2017-12-22T13:38:45.886Z,15.80
2017-12-22T13:41:14.253Z,14.60
2017-12-22T13:43:41.746Z,14.53
2017-12-22T13:46:09.240Z,15.37
2017-12-22T13:48:36.730Z,15.37
2017-12-22T13:51:04.298Z,13.00
2017-12-22T13:53:32.543Z,12.57
2017-12-22T13:56:00.014Z,13.80
2017-12-22T13:58:27.497Z,13.90
2017-12-22T14:00:55.744Z,14.00
2017-12-22T14:03:23.227Z,13.30
2017-12-22T14:05:51.483Z,12.83
2017-12-22T14:08:18.971Z,14.37
2017-12-22T14:10:47.217Z,13.93
2017-12-22T14:13:14.765Z,14.20
2017-12-22T14:15:42.237Z,14.93
2017-12-22T14:18:09.715Z,14.47
2017-12-22T14:20:37.975Z,12.60
2017-12-22T14:23:05.793Z,14.37
2017-12-22T14:25:33.270Z,14.13
2017-12-22T14:28:00.774Z,13.53
2017-12-22T14:30:29.006Z,13.17
2017-12-22T14:32:56.482Z,18.67
2017-12-22T14:35:23.974Z,13.60
2017-12-22T14:37:52.209Z,14.33
2017-12-22T14:40:19.692Z,14.33
2017-12-22T14:42:47.178Z,13.97
2017-12-22T14:45:14.730Z,13.23
2017-12-22T14:47:42.206Z,12.73
2017-12-22T14:50:09.699Z,13.00
2017-12-22T14:52:37.190Z,12.50
2017-12-22T14:55:05.436Z,12.70
2017-12-22T14:57:32.928Z,12.50
2017-12-22T15:00:01.208Z,12.10
2017-12-22T15:02:29.455Z,12.37
2017-12-22T15:04:57.710Z,14.30
2017-12-22T15:07:25.196Z,11.60
2017-12-22T15:09:52.671Z,12.70
2017-12-22T15:12:20.943Z,11.73
2017-12-22T15:14:49.189Z,12.00
2017-12-22T15:17:16.872Z,11.80
2017-12-22T15:19:44.363Z,11.13
2017-12-22T15:22:11.838Z,12.20
2017-12-22T15:24:39.365Z,11.70
2017-12-22T15:27:07.628Z,10.90
2017-12-22T15:29:35.110Z,11.30
2017-12-22T15:32:02.589Z,11.00
2017-12-22T15:34:30.082Z,10.77
2017-12-22T15:36:57.558Z,10.63
2017-12-22T15:39:25.030Z,10.17
2017-12-22T15:41:53.292Z,11.77
2017-12-22T15:44:20.768Z,11.80
2017-12-22T15:46:49.094Z,11.90
2017-12-22T15:49:16.592Z,12.43
2017-12-22T15:51:44.840Z,10.17
2017-12-22T15:54:13.031Z,10.77
2017-12-22T15:56:40.518Z,11.43
2017-12-22T15:59:10.808Z,11.17
2017-12-22T16:01:38.291Z,10.30
2017-12-22T16:04:06.552Z,10.23
2017-12-22T16:06:34.119Z,10.30
2017-12-22T16:09:02.361Z,16.20
2017-12-22T16:11:29.855Z,13.57
2017-12-22T16:13:58.103Z,13.90
2017-12-22T16:16:25.582Z,14.83
2017-12-22T16:18:53.089Z,12.87
2017-12-22T16:21:20.671Z,12.23
2017-12-22T16:23:48.157Z,12.07
2017-12-22T16:26:15.643Z,11.93
2017-12-22T16:28:43.233Z,13.10
2017-12-22T16:31:10.734Z,14.10
2017-12-22T16:33:38.224Z,14.20
2017-12-22T16:36:05.708Z,12.60
2017-12-22T16:38:33.183Z,11.67
2017-12-22T16:41:00.670Z,13.73
2017-12-22T16:43:28.142Z,12.53
2017-12-22T16:45:56.384Z,12.03
2017-12-22T16:48:23.879Z,12.70
2017-12-22T16:50:52.136Z,12.13
2017-12-22T16:53:19.649Z,14.27
2017-12-22T16:55:47.142Z,13.33
2017-12-22T16:58:14.618Z,13.30
2017-12-22T17:00:42.864Z,13.87
2017-12-22T17:03:10.348Z,13.10
2017-12-22T17:05:37.823Z,17.87
2017-12-22T17:08:06.080Z,14.40
2017-12-22T17:10:33.575Z,12.10
2017-12-22T17:13:01.107Z,14.50
2017-12-22T17:15:29.347Z,14.27
2017-12-22T17:17:56.939Z,14.27
2017-12-22T17:20:25.183Z,14.53
2017-12-22T17:22:52.663Z,12.63
2017-12-22T17:25:20.155Z,13.70
2017-12-22T17:27:47.629Z,12.77
2017-12-22T17:30:15.115Z,14.87
2017-12-22T17:32:42.610Z,14.67
2017-12-22T17:35:10.846Z,14.33
2017-12-22T17:37:38.344Z,13.03
2017-12-22T17:40:06.599Z,13.47
2017-12-22T17:42:34.090Z,14.07
2017-12-22T17:45:02.336Z,15.87
2017-12-22T17:47:31.340Z,13.20
2017-12-22T17:49:58.810Z,12.30
2017-12-22T17:52:27.060Z,11.93
2017-12-22T17:54:54.552Z,11.60
2017-12-22T17:57:22.888Z,11.60
2017-12-22T17:59:50.362Z,12.17
2017-12-22T18:02:17.851Z,12.00
2017-12-22T18:04:45.335Z,12.13
2017-12-22T18:07:12.849Z,11.47
2017-12-22T18:09:41.103Z,11.93
2017-12-22T18:12:08.603Z,12.30
2017-12-22T18:14:36.080Z,13.17
2017-12-22T18:17:03.571Z,12.30
2017-12-22T18:19:31.047Z,12.10
2017-12-22T18:21:58.528Z,29.77
2017-12-22T18:24:26.786Z,20.50
2017-12-22T18:26:55.031Z,24.17
2017-12-22T18:29:22.554Z,12.30
2017-12-22T18:31:50.035Z,14.40
2017-12-22T18:34:17.557Z,12.37
2017-12-22T18:36:45.798Z,13.53
2017-12-22T18:39:13.286Z,14.10
2017-12-22T18:41:41.526Z,11.80
2017-12-22T18:44:09.020Z,12.30
2017-12-22T18:46:37.297Z,14.53
2017-12-22T18:49:04.790Z,14.60
2017-12-22T18:51:32.268Z,13.57
2017-12-22T18:53:59.760Z,14.70
2017-12-22T18:56:28.012Z,14.73
2017-12-22T18:58:55.528Z,14.03
2017-12-22T19:01:23.059Z,14.10
2017-12-22T19:03:51.334Z,14.73
2017-12-22T19:06:19.577Z,21.17
2017-12-22T19:08:47.271Z,15.30
2017-12-22T19:11:15.520Z,19.63
2017-12-22T19:13:43.043Z,15.13
2017-12-22T19:16:10.539Z,14.00
2017-12-22T19:18:38.087Z,14.07
2017-12-22T19:21:05.590Z,13.30
2017-12-22T19:23:33.843Z,12.73
2017-12-22T19:26:01.351Z,14.20
2017-12-22T19:28:28.835Z,12.90
2017-12-22T19:30:56.335Z,13.57
2017-12-22T19:33:24.574Z,14.00
2017-12-22T19:35:52.067Z,14.70
2017-12-22T19:38:20.591Z,13.70
2017-12-22T19:40:48.074Z,14.20
2017-12-22T19:43:15.555Z,16.07
2017-12-22T19:45:44.550Z,22.83
2017-12-22T19:48:12.123Z,16.17
2017-12-22T19:50:47.698Z,14.53
2017-12-22T19:53:15.512Z,15.30
2017-12-22T19:55:44.524Z,15.20
2017-12-22T19:58:12.022Z,16.07
2017-12-22T20:00:39.598Z,14.63
2017-12-22T20:03:19.122Z,13.57
2017-12-22T20:05:46.644Z,14.40
2017-12-22T20:08:14.892Z,12.50
2017-12-22T20:10:42.386Z,12.50
2017-12-22T20:13:10.697Z,11.90
2017-12-22T20:15:38.217Z,12.60
2017-12-22T20:18:06.781Z,12.20
2017-12-22T20:20:34.263Z,16.30
2017-12-22T20:23:02.599Z,82.03
2017-12-22T20:25:30.097Z,21.77
2017-12-22T20:27:58.347Z,15.60
2017-12-22T20:30:25.883Z,11.70
2017-12-22T20:32:53.383Z,12.00
2017-12-22T20:35:20.858Z,13.77
2017-12-22T20:37:49.101Z,16.10
2017-12-22T20:40:18.118Z,15.23
2017-12-22T20:42:46.358Z,12.60
2017-12-22T20:45:13.850Z,13.20
2017-12-22T20:47:42.130Z,13.00
2017-12-22T20:50:10.550Z,12.87
2017-12-22T20:52:38.048Z,12.87
2017-12-22T20:55:05.628Z,11.60
2017-12-22T20:57:33.874Z,12.73
2017-12-22T21:00:01.363Z,13.73
2017-12-22T21:02:29.892Z,16.90
2017-12-22T21:04:57.388Z,17.60
2017-12-22T21:07:24.873Z,13.90
2017-12-22T21:09:53.138Z,13.50
2017-12-22T21:12:21.422Z,12.00
2017-12-22T21:14:49.384Z,11.75
2017-12-22T21:17:17.695Z,12.90
2017-12-22T21:19:45.179Z,14.47
2017-12-22T21:22:12.653Z,12.03
2017-12-22T21:24:40.225Z,13.57
2017-12-22T21:27:07.735Z,13.43
2017-12-22T21:29:35.219Z,12.60
2017-12-22T21:32:02.745Z,15.27
2017-12-22T21:34:30.242Z,13.43
2017-12-22T21:36:57.731Z,12.77
2017-12-22T21:39:25.982Z,15.70
2017-12-22T21:41:53.458Z,13.10
2017-12-22T21:44:21.709Z,12.90
2017-12-22T21:46:49.212Z,12.23
2017-12-22T21:49:16.688Z,12.87
2017-12-22T21:51:44.343Z,11.67
2017-12-22T21:54:11.844Z,10.33
2017-12-22T21:56:39.330Z,11.40
2017-12-22T21:59:07.578Z,12.83
2017-12-22T22:01:35.076Z,11.97
2017-12-22T22:04:03.344Z,12.03
2017-12-22T22:06:31.591Z,11.27
2017-12-22T22:08:59.080Z,10.77
2017-12-22T22:11:27.357Z,11.30
2017-12-22T22:13:55.593Z,12.60
2017-12-22T22:16:23.079Z,12.20
2017-12-22T22:18:50.557Z,11.00
2017-12-22T22:21:18.819Z,12.23
2017-12-22T22:23:47.079Z,11.40
2017-12-22T22:26:14.689Z,13.23
2017-12-22T22:28:42.171Z,13.17
2017-12-22T22:31:09.684Z,12.83
2017-12-22T22:33:37.949Z,12.33
2017-12-22T22:36:06.195Z,12.87
2017-12-22T22:38:33.695Z,12.90
2017-12-22T22:41:01.231Z,13.83
2017-12-22T22:43:29.501Z,12.67
2017-12-22T22:45:57.009Z,13.17
2017-12-22T22:48:24.506Z,13.17
2017-12-22T22:50:51.989Z,13.80
2017-12-22T22:53:19.559Z,14.87
2017-12-22T22:55:47.882Z,14.27
2017-12-22T22:58:15.438Z,12.83
2017-12-22T23:00:42.928Z,13.47
2017-12-22T23:03:10.401Z,14.20
2017-12-22T23:05:38.644Z,12.43
2017-12-22T23:08:06.160Z,14.00
2017-12-22T23:10:33.737Z,15.30
2017-12-22T23:13:01.240Z,14.50
2017-12-22T23:15:28.822Z,15.73
2017-12-22T23:17:57.084Z,13.93
2017-12-22T23:20:24.597Z,15.23
2017-12-22T23:22:52.085Z,14.50
2017-12-22T23:25:19.827Z,14.60
2017-12-22T23:27:47.525Z,13.83
2017-12-22T23:30:15.096Z,14.63
2017-12-22T23:32:42.643Z,14.50
2017-12-22T23:35:10.902Z,14.63
2017-12-22T23:37:38.395Z,14.67
2017-12-22T23:40:06.651Z,14.63
2017-12-22T23:42:34.183Z,14.93
2017-12-22T23:45:01.673Z,14.57
2017-12-22T23:47:29.159Z,14.20
2017-12-22T23:49:57.408Z,14.40
2017-12-22T23:52:24.916Z,14.73
2017-12-22T23:54:53.162Z,16.10
2017-12-22T23:57:21.432Z,15.83
2017-12-22T23:59:48.966Z,15.60
